Claypool, Arizona
Current Conditions -  °F | °C
As of 12:47 PM on Friday 28 Nov 2014 (Local Time) from KIWA Reporting Station
Clear Clear  
Wind Chill: 75°   Ceiling: Unl
Heat Index: 75°   Visibility: 45mi
Dew Point: 25°   Wind: 5mph
Humidity: 15%   Direction: 350°N
Pressure: 30.01"   Gusts: NA
Location:  33.41°N, 110.84°W
Report Text: KIWA 281947Z 35004KT 45SM SKC 24/M04 A3001
Loading
Personal Weather Stations






























Interactive Weather Map New forecast layout! Learn more

10-Day Weather Forecast

Advertisements
Track Severe Weather on mobile